sensor_id;sensor_type;location;lat;lon;timestamp;P1;durP1;ratioP1;P2;durP2;ratioP2
71351;SDS011;59159;51.652;4.864;2023-08-01T00:01:01;4.38;;;1.42;;
71351;SDS011;59159;51.652;4.864;2023-08-01T00:03:27;4.50;;;0.90;;
71351;SDS011;59159;51.652;4.864;2023-08-01T00:05:53;4.43;;;0.85;;
71351;SDS011;59159;51.652;4.864;2023-08-01T00:08:20;5.43;;;1.00;;
71351;SDS011;59159;51.652;4.864;2023-08-01T00:10:46;5.10;;;1.07;;
71351;SDS011;59159;51.652;4.864;2023-08-01T00:13:12;3.35;;;1.00;;
71351;SDS011;59159;51.652;4.864;2023-08-01T00:15:38;3.55;;;1.15;;
71351;SDS011;59159;51.652;4.864;2023-08-01T00:18:04;3.80;;;1.10;;
71351;SDS011;59159;51.652;4.864;2023-08-01T00:20:30;3.33;;;1.00;;
71351;SDS011;59159;51.652;4.864;2023-08-01T00:22:56;4.80;;;1.40;;
71351;SDS011;59159;51.652;4.864;2023-08-01T00:25:22;4.00;;;1.10;;
71351;SDS011;59159;51.652;4.864;2023-08-01T00:27:48;6.87;;;1.60;;
71351;SDS011;59159;51.652;4.864;2023-08-01T00:30:16;5.07;;;1.10;;
71351;SDS011;59159;51.652;4.864;2023-08-01T00:32:42;4.15;;;1.20;;
71351;SDS011;59159;51.652;4.864;2023-08-01T00:35:08;4.33;;;1.33;;
71351;SDS011;59159;51.652;4.864;2023-08-01T00:37:34;4.65;;;1.00;;
71351;SDS011;59159;51.652;4.864;2023-08-01T00:40:00;3.25;;;0.90;;
71351;SDS011;59159;51.652;4.864;2023-08-01T00:42:26;3.97;;;1.27;;
71351;SDS011;59159;51.652;4.864;2023-08-01T00:44:52;4.70;;;1.23;;
71351;SDS011;59159;51.652;4.864;2023-08-01T00:47:19;3.38;;;0.90;;
71351;SDS011;59159;51.652;4.864;2023-08-01T00:49:45;3.75;;;1.20;;
71351;SDS011;59159;51.652;4.864;2023-08-01T00:52:11;5.73;;;1.30;;
71351;SDS011;59159;51.652;4.864;2023-08-01T00:54:37;3.97;;;1.00;;
71351;SDS011;59159;51.652;4.864;2023-08-01T00:57:03;3.75;;;1.02;;
71351;SDS011;59159;51.652;4.864;2023-08-01T00:59:30;5.20;;;1.37;;
71351;SDS011;59159;51.652;4.864;2023-08-01T01:01:56;5.07;;;1.23;;
71351;SDS011;59159;51.652;4.864;2023-08-01T01:04:22;4.13;;;1.20;;
71351;SDS011;59159;51.652;4.864;2023-08-01T01:06:53;4.53;;;1.00;;
71351;SDS011;59159;51.652;4.864;2023-08-01T01:09:23;4.20;;;0.90;;
71351;SDS011;59159;51.652;4.864;2023-08-01T01:11:49;5.78;;;0.98;;
71351;SDS011;59159;51.652;4.864;2023-08-01T01:14:15;5.20;;;1.10;;
71351;SDS011;59159;51.652;4.864;2023-08-01T01:16:41;4.43;;;1.00;;
71351;SDS011;59159;51.652;4.864;2023-08-01T01:19:08;4.07;;;1.00;;
71351;SDS011;59159;51.652;4.864;2023-08-01T01:21:34;4.35;;;1.17;;
71351;SDS011;59159;51.652;4.864;2023-08-01T01:24:02;5.57;;;1.03;;
71351;SDS011;59159;51.652;4.864;2023-08-01T01:26:29;4.25;;;1.02;;
71351;SDS011;59159;51.652;4.864;2023-08-01T01:28:56;4.50;;;1.13;;
71351;SDS011;59159;51.652;4.864;2023-08-01T01:31:24;4.28;;;1.10;;
71351;SDS011;59159;51.652;4.864;2023-08-01T01:33:50;4.67;;;1.00;;
71351;SDS011;59159;51.652;4.864;2023-08-01T01:36:16;4.55;;;1.30;;
71351;SDS011;59159;51.652;4.864;2023-08-01T01:38:42;6.28;;;1.42;;
71351;SDS011;59159;51.652;4.864;2023-08-01T01:41:08;4.73;;;1.00;;
71351;SDS011;59159;51.652;4.864;2023-08-01T01:43:36;4.13;;;1.20;;
71351;SDS011;59159;51.652;4.864;2023-08-01T01:46:03;4.57;;;1.42;;
71351;SDS011;59159;51.652;4.864;2023-08-01T01:48:29;4.27;;;1.00;;
71351;SDS011;59159;51.652;4.864;2023-08-01T01:50:55;7.88;;;1.83;;
71351;SDS011;59159;51.652;4.864;2023-08-01T01:53:21;4.20;;;1.20;;
71351;SDS011;59159;51.652;4.864;2023-08-01T01:55:47;5.00;;;1.10;;
71351;SDS011;59159;51.652;4.864;2023-08-01T01:58:13;4.70;;;1.10;;
71351;SDS011;59159;51.652;4.864;2023-08-01T02:00:39;4.35;;;1.13;;
71351;SDS011;59159;51.652;4.864;2023-08-01T02:03:05;4.82;;;1.20;;
71351;SDS011;59159;51.652;4.864;2023-08-01T02:05:32;5.23;;;1.30;;
71351;SDS011;59159;51.652;4.864;2023-08-01T02:07:58;4.90;;;1.15;;
71351;SDS011;59159;51.652;4.864;2023-08-01T02:10:24;5.60;;;1.27;;
71351;SDS011;59159;51.652;4.864;2023-08-01T02:12:50;7.03;;;1.37;;
71351;SDS011;59159;51.652;4.864;2023-08-01T02:15:16;4.88;;;1.30;;
71351;SDS011;59159;51.652;4.864;2023-08-01T02:17:42;5.75;;;1.27;;
71351;SDS011;59159;51.652;4.864;2023-08-01T02:20:08;7.65;;;2.15;;
71351;SDS011;59159;51.652;4.864;2023-08-01T02:22:34;5.33;;;1.60;;
71351;SDS011;59159;51.652;4.864;2023-08-01T02:25:00;5.50;;;1.35;;
71351;SDS011;59159;51.652;4.864;2023-08-01T02:27:26;4.47;;;1.50;;
71351;SDS011;59159;51.652;4.864;2023-08-01T02:29:52;4.37;;;1.10;;
71351;SDS011;59159;51.652;4.864;2023-08-01T02:32:18;4.57;;;1.23;;
71351;SDS011;59159;51.652;4.864;2023-08-01T02:34:44;4.85;;;1.17;;
71351;SDS011;59159;51.652;4.864;2023-08-01T02:37:10;5.30;;;1.37;;
71351;SDS011;59159;51.652;4.864;2023-08-01T02:39:36;4.20;;;1.23;;
71351;SDS011;59159;51.652;4.864;2023-08-01T02:42:02;5.05;;;1.25;;
71351;SDS011;59159;51.652;4.864;2023-08-01T02:44:28;6.30;;;1.65;;
71351;SDS011;59159;51.652;4.864;2023-08-01T02:46:54;6.47;;;1.33;;
71351;SDS011;59159;51.652;4.864;2023-08-01T02:49:20;5.93;;;1.80;;
71351;SDS011;59159;51.652;4.864;2023-08-01T02:51:46;5.05;;;1.50;;
71351;SDS011;59159;51.652;4.864;2023-08-01T02:54:12;5.83;;;1.20;;
71351;SDS011;59159;51.652;4.864;2023-08-01T02:56:38;6.25;;;1.45;;
71351;SDS011;59159;51.652;4.864;2023-08-01T02:59:09;5.05;;;1.63;;
71351;SDS011;59159;51.652;4.864;2023-08-01T03:01:35;4.93;;;1.73;;
71351;SDS011;59159;51.652;4.864;2023-08-01T03:04:02;6.95;;;1.73;;
71351;SDS011;59159;51.652;4.864;2023-08-01T03:06:28;5.97;;;1.55;;
71351;SDS011;59159;51.652;4.864;2023-08-01T03:08:54;4.75;;;1.50;;
71351;SDS011;59159;51.652;4.864;2023-08-01T03:11:20;6.37;;;1.40;;
71351;SDS011;59159;51.652;4.864;2023-08-01T03:13:46;6.30;;;1.58;;
71351;SDS011;59159;51.652;4.864;2023-08-01T03:16:12;5.25;;;1.35;;
71351;SDS011;59159;51.652;4.864;2023-08-01T03:18:38;7.43;;;1.60;;
71351;SDS011;59159;51.652;4.864;2023-08-01T03:21:04;7.30;;;1.60;;
71351;SDS011;59159;51.652;4.864;2023-08-01T03:23:30;5.28;;;1.33;;
71351;SDS011;59159;51.652;4.864;2023-08-01T03:25:56;7.10;;;1.93;;
71351;SDS011;59159;51.652;4.864;2023-08-01T03:28:23;5.45;;;1.42;;
71351;SDS011;59159;51.652;4.864;2023-08-01T03:30:49;7.10;;;1.75;;
71351;SDS011;59159;51.652;4.864;2023-08-01T03:33:16;5.57;;;1.45;;
71351;SDS011;59159;51.652;4.864;2023-08-01T03:35:42;6.83;;;2.00;;
71351;SDS011;59159;51.652;4.864;2023-08-01T03:38:08;6.70;;;1.83;;
71351;SDS011;59159;51.652;4.864;2023-08-01T03:40:34;4.93;;;1.52;;
71351;SDS011;59159;51.652;4.864;2023-08-01T03:43:00;5.60;;;1.53;;
71351;SDS011;59159;51.652;4.864;2023-08-01T03:45:25;5.07;;;1.60;;
71351;SDS011;59159;51.652;4.864;2023-08-01T03:47:51;6.30;;;2.05;;
71351;SDS011;59159;51.652;4.864;2023-08-01T03:50:17;4.67;;;1.53;;
71351;SDS011;59159;51.652;4.864;2023-08-01T03:52:44;5.90;;;1.60;;
71351;SDS011;59159;51.652;4.864;2023-08-01T03:55:10;6.05;;;1.60;;
71351;SDS011;59159;51.652;4.864;2023-08-01T03:57:36;6.53;;;1.63;;
71351;SDS011;59159;51.652;4.864;2023-08-01T04:00:04;5.63;;;1.30;;
71351;SDS011;59159;51.652;4.864;2023-08-01T04:02:30;7.47;;;1.50;;
71351;SDS011;59159;51.652;4.864;2023-08-01T04:04:56;6.50;;;1.83;;
71351;SDS011;59159;51.652;4.864;2023-08-01T04:07:22;5.27;;;1.30;;
71351;SDS011;59159;51.652;4.864;2023-08-01T04:09:48;6.53;;;1.60;;
71351;SDS011;59159;51.652;4.864;2023-08-01T04:12:14;6.57;;;1.63;;
71351;SDS011;59159;51.652;4.864;2023-08-01T04:14:40;5.93;;;1.60;;
71351;SDS011;59159;51.652;4.864;2023-08-01T04:17:07;6.93;;;2.10;;
71351;SDS011;59159;51.652;4.864;2023-08-01T04:19:33;7.18;;;2.10;;
71351;SDS011;59159;51.652;4.864;2023-08-01T04:21:59;7.05;;;1.95;;
71351;SDS011;59159;51.652;4.864;2023-08-01T04:24:25;7.10;;;1.53;;
71351;SDS011;59159;51.652;4.864;2023-08-01T04:26:52;6.07;;;1.42;;
71351;SDS011;59159;51.652;4.864;2023-08-01T04:29:19;8.30;;;1.88;;
71351;SDS011;59159;51.652;4.864;2023-08-01T04:31:45;6.00;;;1.53;;
71351;SDS011;59159;51.652;4.864;2023-08-01T04:34:11;5.60;;;1.60;;
71351;SDS011;59159;51.652;4.864;2023-08-01T04:36:37;5.88;;;1.60;;
71351;SDS011;59159;51.652;4.864;2023-08-01T04:39:03;8.10;;;2.30;;
71351;SDS011;59159;51.652;4.864;2023-08-01T04:41:29;5.90;;;1.40;;
71351;SDS011;59159;51.652;4.864;2023-08-01T04:43:54;6.63;;;2.05;;
71351;SDS011;59159;51.652;4.864;2023-08-01T04:46:20;7.60;;;2.47;;
71351;SDS011;59159;51.652;4.864;2023-08-01T04:48:46;10.20;;;3.20;;
71351;SDS011;59159;51.652;4.864;2023-08-01T04:51:12;8.80;;;2.67;;
71351;SDS011;59159;51.652;4.864;2023-08-01T04:53:38;10.73;;;3.10;;
71351;SDS011;59159;51.652;4.864;2023-08-01T04:56:04;10.47;;;2.80;;
71351;SDS011;59159;51.652;4.864;2023-08-01T04:58:30;8.30;;;2.65;;
71351;SDS011;59159;51.652;4.864;2023-08-01T05:00:56;12.30;;;2.70;;
71351;SDS011;59159;51.652;4.864;2023-08-01T05:03:22;9.63;;;2.80;;
71351;SDS011;59159;51.652;4.864;2023-08-01T05:05:48;9.93;;;3.08;;
71351;SDS011;59159;51.652;4.864;2023-08-01T05:08:14;10.18;;;2.70;;
71351;SDS011;59159;51.652;4.864;2023-08-01T05:10:40;8.48;;;2.88;;
71351;SDS011;59159;51.652;4.864;2023-08-01T05:13:06;9.20;;;2.57;;
71351;SDS011;59159;51.652;4.864;2023-08-01T05:15:32;11.32;;;3.45;;
71351;SDS011;59159;51.652;4.864;2023-08-01T05:17:58;12.10;;;3.25;;
71351;SDS011;59159;51.652;4.864;2023-08-01T05:20:24;9.80;;;2.57;;
71351;SDS011;59159;51.652;4.864;2023-08-01T05:22:55;10.68;;;3.15;;
71351;SDS011;59159;51.652;4.864;2023-08-01T05:25:21;9.27;;;3.05;;
71351;SDS011;59159;51.652;4.864;2023-08-01T05:27:47;8.77;;;2.57;;
71351;SDS011;59159;51.652;4.864;2023-08-01T05:30:13;12.73;;;3.08;;
71351;SDS011;59159;51.652;4.864;2023-08-01T05:32:39;10.63;;;2.80;;
71351;SDS011;59159;51.652;4.864;2023-08-01T05:35:06;11.98;;;3.35;;
71351;SDS011;59159;51.652;4.864;2023-08-01T05:37:32;10.40;;;3.07;;
71351;SDS011;59159;51.652;4.864;2023-08-01T05:39:58;11.88;;;3.15;;
71351;SDS011;59159;51.652;4.864;2023-08-01T05:42:24;9.57;;;3.40;;
71351;SDS011;59159;51.652;4.864;2023-08-01T05:44:50;11.80;;;2.90;;
71351;SDS011;59159;51.652;4.864;2023-08-01T05:47:16;9.93;;;3.05;;
71351;SDS011;59159;51.652;4.864;2023-08-01T05:49:42;9.93;;;3.03;;
71351;SDS011;59159;51.652;4.864;2023-08-01T05:52:08;7.00;;;2.27;;
71351;SDS011;59159;51.652;4.864;2023-08-01T05:54:33;7.78;;;2.92;;
71351;SDS011;59159;51.652;4.864;2023-08-01T05:57:00;8.73;;;2.63;;
71351;SDS011;59159;51.652;4.864;2023-08-01T05:59:26;10.90;;;2.75;;
71351;SDS011;59159;51.652;4.864;2023-08-01T06:01:52;7.87;;;2.70;;
71351;SDS011;59159;51.652;4.864;2023-08-01T06:04:18;8.27;;;2.60;;
71351;SDS011;59159;51.652;4.864;2023-08-01T06:06:44;9.50;;;2.90;;
71351;SDS011;59159;51.652;4.864;2023-08-01T06:09:10;8.77;;;3.00;;
71351;SDS011;59159;51.652;4.864;2023-08-01T06:11:36;9.15;;;2.88;;
71351;SDS011;59159;51.652;4.864;2023-08-01T06:14:02;10.18;;;2.30;;
71351;SDS011;59159;51.652;4.864;2023-08-01T06:16:28;9.80;;;2.67;;
71351;SDS011;59159;51.652;4.864;2023-08-01T06:18:54;7.80;;;2.65;;
71351;SDS011;59159;51.652;4.864;2023-08-01T06:21:20;9.60;;;3.10;;
71351;SDS011;59159;51.652;4.864;2023-08-01T06:23:46;11.45;;;2.60;;
71351;SDS011;59159;51.652;4.864;2023-08-01T06:26:12;7.87;;;2.27;;
71351;SDS011;59159;51.652;4.864;2023-08-01T06:28:40;7.75;;;2.38;;
71351;SDS011;59159;51.652;4.864;2023-08-01T06:31:06;9.88;;;2.70;;
71351;SDS011;59159;51.652;4.864;2023-08-01T06:33:32;8.83;;;2.60;;
71351;SDS011;59159;51.652;4.864;2023-08-01T06:35:58;9.98;;;2.47;;
71351;SDS011;59159;51.652;4.864;2023-08-01T06:38:24;8.93;;;2.17;;
71351;SDS011;59159;51.652;4.864;2023-08-01T06:40:50;13.63;;;3.07;;
71351;SDS011;59159;51.652;4.864;2023-08-01T06:43:16;6.93;;;2.45;;
71351;SDS011;59159;51.652;4.864;2023-08-01T06:45:42;8.65;;;2.60;;
71351;SDS011;59159;51.652;4.864;2023-08-01T06:48:08;7.43;;;2.40;;
71351;SDS011;59159;51.652;4.864;2023-08-01T06:50:34;8.27;;;2.30;;
71351;SDS011;59159;51.652;4.864;2023-08-01T06:53:00;9.88;;;2.47;;
71351;SDS011;59159;51.652;4.864;2023-08-01T06:55:26;10.75;;;3.08;;
71351;SDS011;59159;51.652;4.864;2023-08-01T06:57:53;8.03;;;2.37;;
71351;SDS011;59159;51.652;4.864;2023-08-01T07:00:18;7.60;;;2.70;;
71351;SDS011;59159;51.652;4.864;2023-08-01T07:02:44;8.30;;;2.75;;
71351;SDS011;59159;51.652;4.864;2023-08-01T07:05:11;11.73;;;2.87;;
71351;SDS011;59159;51.652;4.864;2023-08-01T07:07:37;9.23;;;2.60;;
71351;SDS011;59159;51.652;4.864;2023-08-01T07:10:03;8.80;;;2.22;;
71351;SDS011;59159;51.652;4.864;2023-08-01T07:12:29;6.95;;;2.22;;
71351;SDS011;59159;51.652;4.864;2023-08-01T07:14:55;9.63;;;3.77;;
71351;SDS011;59159;51.652;4.864;2023-08-01T07:17:21;9.63;;;2.40;;
71351;SDS011;59159;51.652;4.864;2023-08-01T07:19:47;11.60;;;2.42;;
71351;SDS011;59159;51.652;4.864;2023-08-01T07:22:13;7.67;;;2.73;;
71351;SDS011;59159;51.652;4.864;2023-08-01T07:24:39;9.73;;;2.40;;
71351;SDS011;59159;51.652;4.864;2023-08-01T07:27:05;11.05;;;2.40;;
71351;SDS011;59159;51.652;4.864;2023-08-01T07:29:31;9.27;;;2.50;;
71351;SDS011;59159;51.652;4.864;2023-08-01T07:31:57;7.63;;;2.33;;
71351;SDS011;59159;51.652;4.864;2023-08-01T07:34:23;9.60;;;2.88;;
71351;SDS011;59159;51.652;4.864;2023-08-01T07:36:49;8.27;;;1.98;;
71351;SDS011;59159;51.652;4.864;2023-08-01T07:39:15;7.97;;;2.47;;
71351;SDS011;59159;51.652;4.864;2023-08-01T07:41:41;8.65;;;2.38;;
71351;SDS011;59159;51.652;4.864;2023-08-01T07:44:07;10.63;;;2.72;;
71351;SDS011;59159;51.652;4.864;2023-08-01T07:46:33;9.27;;;2.40;;
71351;SDS011;59159;51.652;4.864;2023-08-01T07:48:59;9.23;;;2.78;;
71351;SDS011;59159;51.652;4.864;2023-08-01T07:51:25;10.35;;;2.78;;
71351;SDS011;59159;51.652;4.864;2023-08-01T07:53:52;9.63;;;2.10;;
71351;SDS011;59159;51.652;4.864;2023-08-01T07:56:19;10.80;;;2.75;;
71351;SDS011;59159;51.652;4.864;2023-08-01T07:58:45;8.43;;;2.50;;
71351;SDS011;59159;51.652;4.864;2023-08-01T08:01:11;12.15;;;3.15;;
71351;SDS011;59159;51.652;4.864;2023-08-01T08:03:37;8.13;;;2.37;;
71351;SDS011;59159;51.652;4.864;2023-08-01T08:06:03;10.35;;;3.45;;
71351;SDS011;59159;51.652;4.864;2023-08-01T08:08:30;8.23;;;2.05;;
71351;SDS011;59159;51.652;4.864;2023-08-01T08:10:58;10.27;;;1.73;;
71351;SDS011;59159;51.652;4.864;2023-08-01T08:13:26;8.45;;;2.42;;
71351;SDS011;59159;51.652;4.864;2023-08-01T08:15:52;7.35;;;1.88;;
71351;SDS011;59159;51.652;4.864;2023-08-01T08:18:18;10.77;;;2.90;;
71351;SDS011;59159;51.652;4.864;2023-08-01T08:20:45;8.75;;;2.00;;
71351;SDS011;59159;51.652;4.864;2023-08-01T08:23:11;8.57;;;2.15;;
71351;SDS011;59159;51.652;4.864;2023-08-01T08:25:39;7.65;;;2.10;;
71351;SDS011;59159;51.652;4.864;2023-08-01T08:28:05;9.20;;;2.33;;
71351;SDS011;59159;51.652;4.864;2023-08-01T08:30:31;6.85;;;1.65;;
71351;SDS011;59159;51.652;4.864;2023-08-01T08:32:57;10.50;;;2.25;;
71351;SDS011;59159;51.652;4.864;2023-08-01T08:35:25;7.43;;;1.60;;
71351;SDS011;59159;51.652;4.864;2023-08-01T08:37:51;6.78;;;1.80;;
71351;SDS011;59159;51.652;4.864;2023-08-01T08:40:17;9.73;;;1.85;;
71351;SDS011;59159;51.652;4.864;2023-08-01T08:42:43;7.50;;;1.90;;
71351;SDS011;59159;51.652;4.864;2023-08-01T08:45:11;10.50;;;1.83;;
71351;SDS011;59159;51.652;4.864;2023-08-01T08:47:38;7.80;;;1.63;;
71351;SDS011;59159;51.652;4.864;2023-08-01T08:50:07;8.45;;;1.73;;
71351;SDS011;59159;51.652;4.864;2023-08-01T08:52:34;11.80;;;1.80;;
71351;SDS011;59159;51.652;4.864;2023-08-01T08:55:00;6.22;;;1.80;;
71351;SDS011;59159;51.652;4.864;2023-08-01T08:57:27;7.40;;;2.30;;
71351;SDS011;59159;51.652;4.864;2023-08-01T08:59:54;8.00;;;1.90;;
71351;SDS011;59159;51.652;4.864;2023-08-01T09:02:21;6.60;;;1.73;;
71351;SDS011;59159;51.652;4.864;2023-08-01T09:04:48;7.20;;;1.83;;
71351;SDS011;59159;51.652;4.864;2023-08-01T09:07:14;7.40;;;1.63;;
71351;SDS011;59159;51.652;4.864;2023-08-01T09:09:41;6.50;;;1.90;;
71351;SDS011;59159;51.652;4.864;2023-08-01T09:12:07;8.50;;;1.98;;
71351;SDS011;59159;51.652;4.864;2023-08-01T09:14:33;8.45;;;2.33;;
71351;SDS011;59159;51.652;4.864;2023-08-01T09:17:06;7.87;;;2.10;;
71351;SDS011;59159;51.652;4.864;2023-08-01T09:19:33;7.22;;;1.55;;
71351;SDS011;59159;51.652;4.864;2023-08-01T09:21:59;8.80;;;1.77;;
71351;SDS011;59159;51.652;4.864;2023-08-01T09:24:25;6.53;;;1.70;;
71351;SDS011;59159;51.652;4.864;2023-08-01T09:26:53;7.07;;;2.00;;
71351;SDS011;59159;51.652;4.864;2023-08-01T09:29:27;6.68;;;1.48;;
71351;SDS011;59159;51.652;4.864;2023-08-01T09:31:54;6.37;;;1.53;;
71351;SDS011;59159;51.652;4.864;2023-08-01T09:34:21;10.25;;;2.22;;
71351;SDS011;59159;51.652;4.864;2023-08-01T09:36:47;9.98;;;1.90;;
71351;SDS011;59159;51.652;4.864;2023-08-01T09:39:17;6.82;;;1.75;;
71351;SDS011;59159;51.652;4.864;2023-08-01T09:41:44;7.07;;;1.60;;
71351;SDS011;59159;51.652;4.864;2023-08-01T09:44:10;7.47;;;2.15;;
71351;SDS011;59159;51.652;4.864;2023-08-01T09:46:37;7.65;;;2.20;;
71351;SDS011;59159;51.652;4.864;2023-08-01T09:49:11;6.83;;;1.50;;
71351;SDS011;59159;51.652;4.864;2023-08-01T09:51:48;5.22;;;1.50;;
71351;SDS011;59159;51.652;4.864;2023-08-01T09:54:15;7.25;;;2.00;;
71351;SDS011;59159;51.652;4.864;2023-08-01T09:56:41;8.53;;;1.40;;
71351;SDS011;59159;51.652;4.864;2023-08-01T09:59:10;7.85;;;1.77;;
71351;SDS011;59159;51.652;4.864;2023-08-01T10:01:36;5.10;;;1.60;;
71351;SDS011;59159;51.652;4.864;2023-08-01T10:04:04;9.52;;;1.90;;
71351;SDS011;59159;51.652;4.864;2023-08-01T10:06:32;6.60;;;1.70;;
71351;SDS011;59159;51.652;4.864;2023-08-01T10:08:59;9.93;;;2.10;;
71351;SDS011;59159;51.652;4.864;2023-08-01T10:11:25;8.23;;;1.70;;
71351;SDS011;59159;51.652;4.864;2023-08-01T10:13:52;6.83;;;1.50;;
71351;SDS011;59159;51.652;4.864;2023-08-01T10:16:19;8.45;;;1.70;;
71351;SDS011;59159;51.652;4.864;2023-08-01T10:18:44;7.75;;;2.03;;
71351;SDS011;59159;51.652;4.864;2023-08-01T10:21:14;7.20;;;1.80;;
71351;SDS011;59159;51.652;4.864;2023-08-01T10:23:42;5.07;;;1.33;;
71351;SDS011;59159;51.652;4.864;2023-08-01T10:26:09;6.95;;;1.73;;
71351;SDS011;59159;51.652;4.864;2023-08-01T10:28:36;8.82;;;1.70;;
71351;SDS011;59159;51.652;4.864;2023-08-01T10:31:06;8.50;;;1.70;;
71351;SDS011;59159;51.652;4.864;2023-08-01T10:33:33;7.32;;;1.75;;
71351;SDS011;59159;51.652;4.864;2023-08-01T10:35:59;6.55;;;1.83;;
71351;SDS011;59159;51.652;4.864;2023-08-01T10:38:25;5.70;;;1.37;;
71351;SDS011;59159;51.652;4.864;2023-08-01T10:40:51;5.15;;;1.42;;
71351;SDS011;59159;51.652;4.864;2023-08-01T10:45:46;7.23;;;1.80;;
71351;SDS011;59159;51.652;4.864;2023-08-01T10:48:12;5.90;;;1.35;;
71351;SDS011;59159;51.652;4.864;2023-08-01T10:50:38;5.10;;;1.48;;
71351;SDS011;59159;51.652;4.864;2023-08-01T10:53:08;6.10;;;1.75;;
71351;SDS011;59159;51.652;4.864;2023-08-01T10:55:53;6.13;;;1.17;;
71351;SDS011;59159;51.652;4.864;2023-08-01T10:58:19;8.25;;;1.50;;
71351;SDS011;59159;51.652;4.864;2023-08-01T11:00:45;5.75;;;1.40;;
71351;SDS011;59159;51.652;4.864;2023-08-01T11:03:11;4.60;;;1.30;;
71351;SDS011;59159;51.652;4.864;2023-08-01T11:05:37;7.22;;;1.65;;
71351;SDS011;59159;51.652;4.864;2023-08-01T11:08:03;6.68;;;1.60;;
71351;SDS011;59159;51.652;4.864;2023-08-01T11:10:30;7.50;;;1.50;;
71351;SDS011;59159;51.652;4.864;2023-08-01T11:12:57;8.75;;;1.70;;
71351;SDS011;59159;51.652;4.864;2023-08-01T11:15:23;5.28;;;1.50;;
71351;SDS011;59159;51.652;4.864;2023-08-01T11:17:50;5.07;;;1.20;;
71351;SDS011;59159;51.652;4.864;2023-08-01T11:20:17;7.53;;;1.60;;
71351;SDS011;59159;51.652;4.864;2023-08-01T11:22:56;5.90;;;1.30;;
71351;SDS011;59159;51.652;4.864;2023-08-01T11:28:08;6.47;;;1.47;;
71351;SDS011;59159;51.652;4.864;2023-08-01T11:30:34;7.85;;;1.77;;
71351;SDS011;59159;51.652;4.864;2023-08-01T11:33:00;8.98;;;2.22;;
71351;SDS011;59159;51.652;4.864;2023-08-01T11:35:28;8.50;;;1.63;;
71351;SDS011;59159;51.652;4.864;2023-08-01T11:37:54;7.35;;;1.45;;
71351;SDS011;59159;51.652;4.864;2023-08-01T11:40:20;6.80;;;1.67;;
71351;SDS011;59159;51.652;4.864;2023-08-01T11:42:49;5.65;;;1.45;;
71351;SDS011;59159;51.652;4.864;2023-08-01T11:45:16;7.57;;;1.40;;
71351;SDS011;59159;51.652;4.864;2023-08-01T11:47:46;5.95;;;1.70;;
71351;SDS011;59159;51.652;4.864;2023-08-01T11:50:12;5.85;;;1.13;;
71351;SDS011;59159;51.652;4.864;2023-08-01T11:52:38;7.83;;;1.80;;
71351;SDS011;59159;51.652;4.864;2023-08-01T11:55:04;5.97;;;1.45;;
71351;SDS011;59159;51.652;4.864;2023-08-01T11:57:30;5.60;;;1.35;;
71351;SDS011;59159;51.652;4.864;2023-08-01T11:59:56;7.27;;;1.60;;
71351;SDS011;59159;51.652;4.864;2023-08-01T12:02:26;6.38;;;1.25;;
71351;SDS011;59159;51.652;4.864;2023-08-01T12:04:53;9.55;;;1.77;;
71351;SDS011;59159;51.652;4.864;2023-08-01T12:07:20;5.90;;;1.35;;
71351;SDS011;59159;51.652;4.864;2023-08-01T12:09:59;8.97;;;1.47;;
71351;SDS011;59159;51.652;4.864;2023-08-01T12:12:26;6.30;;;1.30;;
71351;SDS011;59159;51.652;4.864;2023-08-01T12:14:52;7.10;;;1.60;;
71351;SDS011;59159;51.652;4.864;2023-08-01T12:17:19;5.97;;;1.60;;
71351;SDS011;59159;51.652;4.864;2023-08-01T12:19:45;5.53;;;1.50;;
71351;SDS011;59159;51.652;4.864;2023-08-01T12:22:11;6.72;;;1.40;;
71351;SDS011;59159;51.652;4.864;2023-08-01T12:24:37;6.00;;;1.40;;
71351;SDS011;59159;51.652;4.864;2023-08-01T12:27:05;6.55;;;1.25;;
71351;SDS011;59159;51.652;4.864;2023-08-01T12:29:31;6.38;;;1.20;;
71351;SDS011;59159;51.652;4.864;2023-08-01T12:31:57;5.97;;;1.52;;
71351;SDS011;59159;51.652;4.864;2023-08-01T12:34:23;6.80;;;1.50;;
71351;SDS011;59159;51.652;4.864;2023-08-01T12:36:49;7.65;;;1.40;;
71351;SDS011;59159;51.652;4.864;2023-08-01T12:39:15;7.40;;;1.65;;
71351;SDS011;59159;51.652;4.864;2023-08-01T12:41:41;5.40;;;1.20;;
71351;SDS011;59159;51.652;4.864;2023-08-01T12:44:06;6.78;;;1.67;;
71351;SDS011;59159;51.652;4.864;2023-08-01T12:46:32;8.48;;;1.98;;
71351;SDS011;59159;51.652;4.864;2023-08-01T12:48:58;6.77;;;1.40;;
71351;SDS011;59159;51.652;4.864;2023-08-01T12:51:24;5.22;;;1.40;;
71351;SDS011;59159;51.652;4.864;2023-08-01T12:53:50;7.32;;;1.30;;
71351;SDS011;59159;51.652;4.864;2023-08-01T12:56:17;7.75;;;1.92;;
71351;SDS011;59159;51.652;4.864;2023-08-01T12:58:43;5.97;;;1.60;;
71351;SDS011;59159;51.652;4.864;2023-08-01T13:01:09;6.05;;;1.42;;
71351;SDS011;59159;51.652;4.864;2023-08-01T13:03:35;9.13;;;1.75;;
71351;SDS011;59159;51.652;4.864;2023-08-01T13:06:01;6.37;;;1.40;;
71351;SDS011;59159;51.652;4.864;2023-08-01T13:08:27;5.22;;;1.35;;
71351;SDS011;59159;51.652;4.864;2023-08-01T13:10:54;6.28;;;1.30;;
71351;SDS011;59159;51.652;4.864;2023-08-01T13:13:20;5.43;;;1.10;;
71351;SDS011;59159;51.652;4.864;2023-08-01T13:15:46;8.30;;;1.40;;
71351;SDS011;59159;51.652;4.864;2023-08-01T13:18:12;5.88;;;1.50;;
71351;SDS011;59159;51.652;4.864;2023-08-01T13:20:39;4.53;;;1.17;;
71351;SDS011;59159;51.652;4.864;2023-08-01T13:23:05;7.63;;;1.60;;
71351;SDS011;59159;51.652;4.864;2023-08-01T13:25:31;5.28;;;1.25;;
71351;SDS011;59159;51.652;4.864;2023-08-01T13:27:57;8.85;;;1.45;;
71351;SDS011;59159;51.652;4.864;2023-08-01T13:30:23;6.40;;;1.30;;
71351;SDS011;59159;51.652;4.864;2023-08-01T13:32:49;7.43;;;1.80;;
71351;SDS011;59159;51.652;4.864;2023-08-01T13:35:15;5.07;;;1.27;;
71351;SDS011;59159;51.652;4.864;2023-08-01T13:37:41;8.77;;;1.80;;
71351;SDS011;59159;51.652;4.864;2023-08-01T13:40:07;5.35;;;1.23;;
71351;SDS011;59159;51.652;4.864;2023-08-01T13:42:34;4.80;;;1.50;;
71351;SDS011;59159;51.652;4.864;2023-08-01T13:45:00;5.55;;;1.35;;
71351;SDS011;59159;51.652;4.864;2023-08-01T13:47:26;5.90;;;1.50;;
71351;SDS011;59159;51.652;4.864;2023-08-01T13:49:52;5.85;;;1.25;;
71351;SDS011;59159;51.652;4.864;2023-08-01T13:52:18;7.60;;;1.85;;
71351;SDS011;59159;51.652;4.864;2023-08-01T13:54:44;8.67;;;1.80;;
71351;SDS011;59159;51.652;4.864;2023-08-01T13:57:10;8.85;;;1.52;;
71351;SDS011;59159;51.652;4.864;2023-08-01T13:59:36;6.15;;;1.40;;
71351;SDS011;59159;51.652;4.864;2023-08-01T14:02:02;5.50;;;1.07;;
71351;SDS011;59159;51.652;4.864;2023-08-01T14:04:28;7.38;;;1.60;;
71351;SDS011;59159;51.652;4.864;2023-08-01T14:06:54;7.25;;;1.40;;
71351;SDS011;59159;51.652;4.864;2023-08-01T14:09:20;7.10;;;1.60;;
71351;SDS011;59159;51.652;4.864;2023-08-01T14:11:46;6.53;;;1.50;;
71351;SDS011;59159;51.652;4.864;2023-08-01T14:14:12;7.70;;;1.40;;
71351;SDS011;59159;51.652;4.864;2023-08-01T14:16:38;6.35;;;1.23;;
71351;SDS011;59159;51.652;4.864;2023-08-01T14:19:04;6.93;;;1.10;;
71351;SDS011;59159;51.652;4.864;2023-08-01T14:21:31;6.97;;;1.42;;
71351;SDS011;59159;51.652;4.864;2023-08-01T14:23:57;6.13;;;1.30;;
71351;SDS011;59159;51.652;4.864;2023-08-01T14:26:23;6.20;;;1.30;;
71351;SDS011;59159;51.652;4.864;2023-08-01T14:28:49;7.32;;;1.63;;
71351;SDS011;59159;51.652;4.864;2023-08-01T14:31:15;4.93;;;1.23;;
71351;SDS011;59159;51.652;4.864;2023-08-01T14:33:41;6.10;;;1.17;;
71351;SDS011;59159;51.652;4.864;2023-08-01T14:36:08;5.60;;;1.13;;
71351;SDS011;59159;51.652;4.864;2023-08-01T14:38:34;5.53;;;1.67;;
71351;SDS011;59159;51.652;4.864;2023-08-01T14:41:03;5.63;;;1.38;;
71351;SDS011;59159;51.652;4.864;2023-08-01T14:43:30;6.53;;;1.60;;
71351;SDS011;59159;51.652;4.864;2023-08-01T14:45:56;4.95;;;1.30;;